Pagrindinis puslapis
METAR-TAF:

METAR-TAF

Oro uostai :

Puerto Princesa, Filipinai

platuma: 09-44-32N, ilguma: 118-45-31E, Aukštis: 22 m

Dabartinis oras

Ataskaita buvo paskelbta 32 minutes, ne 08:00 UTC
Vėjas 14 kt iš Rytų
Temperatūra 30°C
Drėgmė 66%
Slėgis 1011 hPa
Matomumas 10 km arba daugiau
Mažai debesys ne aukštis 1900 ft

METAR: RPVP 230800Z 09014KT 9999 FEW019 30/23 Q1011 RMK A2985

Laikas: 16:32 (08:32 UTC)

Prognozė

Ataskaita buvo paskelbta 3 valandos ir 32 minutes, ne 05:00 UTC
Prognozė galioja nuo 23 metu 06 UTC su 24 metu 06 UTC
Vėjas 10 kt iš Rytų
Matomumas 10 km arba daugiau
Mažai debesys ne aukštis 1900 ft
Išsisklaidę debesys ne aukštis 25000 ft
Laikinai
nuo 23 metu 06 UTC su 23 metu 12 UTC
Vėjas 14 kt iš Rytų/Šiaurės Rytų
Mažai debesys ne aukštis 1900 ft
Išsisklaidę debesys ne aukštis 8000 ft
Laikinai
nuo 23 metu 15 UTC su 23 metu 21 UTC
Vėjas 6 kt iš Šiaurės Rytų
Mažai debesys ne aukštis 1900 ft

TAF: RPVP 230500Z 2306/2406 08010KT 9999 FEW019 SCT250 TEMPO 2306/2312 07014KT FEW019 SCT080 TEMPO 2315/2321 04006KT FEW019

Orai ataskaitas ir orų prognozės (METAR, TAF).

turimą stotys yra geltonos ir raudonos taškus žemėlapyje.

Perkelti pele per norėdami pamatyti stoties vardą.

Tada spustelėkite, norėdami matyti oro stebėjimo ir prognozės.

Norėdami pakeisti žemėlapį: spustelėkite ant žalios mygtukų su juodo kryžiaus žemyn,; žalią mygtuką su brūkšneliu, jei norite nutolinti; arba žalių rodyklių gretimoms žemėlapius.


METAR-TAF: